Terminal Aerodrome Forecast
Issued by NWS

Home | Current Version | Previous Version | Text Only | Print | Product List | Glossary On
Versions: 1 2 3 4 5 6 7 8 9 10 11 12 13 14 15 16 17 18
000
FTUS42 KTAE 010536
TAFABY
TAF
KABY 010536Z 0106/0206 00000KT 6SM BR SCT005 BKN250
      TEMPO 0108/0112 5SM BR BKN005
     FM012000 09006KT 3SM TSRA BKN030CB
     FM020100 14003KT P6SM VCSH SCT030 BKN100=

USA.gov is the U.S. government's official web portal to all federal, state and local government web resources and services.